Milvauchia, WI

04:26 AM CDT die 26o October, anno 2014 (GMT -0500)
East Side | Change Station
CLOSE
Current Station
Personal Weather Stations
Location: Milwaukee, WI
Elevation: 646 ft
Nearby Weather Stations

Elev 646 ft 43.06 °N, 87.89 °W | Updated 43 seconds ago

Serena
Serena
47.3 °F
Feels Like 47 °F
N
3.0
Ventus Variabilis Ventus from Auster
Gusts 4.0 mph

Hodie
High -- | Low -- °F
--% Chance of Precip.
Yesterday
High -- | Low -- °F
Precip. -- in
7:18 AM 5:51 PM
Waxing Crescent, 7% visible
Pressio 29.99 in
Visibilitas 10.0 milia passuum
Clouds Serena
Frigus Venti 47 °F
Frigus in quo Ros apparet 32 °F
Umor 56%
Rainfall 0.00 in
Snow Depth Not available.
UV 0 out of 12
Pollen 2.30 out of 12
Ozone Good
PM2.5 Good
Flu Activity Sporadic
METAR KMKE 260852Z 32004KT 10SM CLR 08/M03 A2998 RMK AO2 SLP154 T00781028 51010

More Conditions Fewer Conditions

Pressio 29.99 in
Visibilitas 10.0 milia passuum
Clouds Serena
Frigus Venti 47 °F
Frigus in quo Ros apparet 32 °F
Umor 56%
Rainfall 0.00 in
Snow Depth Not available.
UV 0 out of 12
Pollen 2.30 out of 12
Ozone Good
PM2.5 Good
Flu Activity Sporadic
METAR KMKE 260852Z 32004KT 10SM CLR 08/M03 A2998 RMK AO2 SLP154 T00781028 51010

More Conditions Fewer Conditions

10-Day Weather Forecast

Almanac

Astronomy

Oct. 26, 2014 Rise Set
Actual Time 7:18 AM CDT 5:51 PM CDT
Civil Twilight 6:49 AM CDT 6:21 PM CDT
Nautical Twilight 6:16 AM CDT 6:54 PM CDT
Astronomical Twilight 5:43 AM CDT 7:27 PM CDT
Moon 9:59 AM CDT 8:00 PM CDT
Length Of Visible Light 11h 31m
Length of Day
10h 33m
Tomorrow will be 2m 41s shorter.
Waxing Crescent, 7% of the Moon is Illuminated
Hodie
Waxing Crescent
Oct 30
First Quarter
Nov 6
Full
Nov 14
Last Quarter
Nov 22
New

Today's Extremes

State Highs State Lows

Community

WunderPhotos

Upload Photos

1,765,130 photos uploaded!

Nearby

Air Quality

  Air Quality AQ Index Pollutant
Yesterday Good
OZONE
Yesterday Good
PM10
Current Good
PM2.5
Current Good
OZONE
Die Solis Good
PM2.5
Die Lunae Moderate
PM2.5

Snow Depth

Station Depth Elevation
No new snow has been reported.

Earthquake Activity

City Distance Mag. Time & Date
No recent earthquake activity has been reported nearby.
Minimum magnitude displayed is 2.5.

Coastal Water Temperatures

Locus Calor
No Stations Reporting

Nearby Weather Stations